MASCOMA R @ W CANAAN: From 11/03/2018 15:00 to 11/17/2018 20:00

Date STAGE [FT] FLOW [CFS] PRECIPITATION INCREMENT [IN] AIR TEMPERATURE [DEGF]
11/07/2018 20:00 3.28 449.1 -- --
11/07/2018 19:00 2.81 321.8 -- --
11/07/2018 18:00 2.33 216.8 -- --
11/07/2018 17:00 1.86 131.7 -- --
11/07/2018 16:00 1.39 66.8 -- --
11/07/2018 15:00 0.92 27.4 -- --
11/07/2018 14:00 0.44 6.3 -- --
11/07/2018 13:00 -0.03 0.6 0.00 53.0
11/07/2018 12:00 0.00 0.6 0.00 51.9
11/07/2018 11:00 0.00 0.6 -- -1.7
11/07/2018 10:00 0.02 0.6 -- -1.1
11/07/2018 09:00 0.04 0.6 -- -0.4
11/07/2018 08:00 0.06 0.6 -- 0.2
11/07/2018 07:00 0.08 0.6 -- 0.8
11/07/2018 06:00 0.10 0.6 -- 1.4
11/07/2018 05:00 0.12 0.7 -- 2.1
11/07/2018 04:00 0.14 0.9 -- 2.7
11/07/2018 03:00 0.16 1.1 -- 3.3
11/07/2018 02:00 0.17 1.3 -- 3.9
11/07/2018 01:00 0.19 1.5 -- 4.6
11/07/2018 00:00 0.21 1.8 -- 5.2
11/06/2018 23:00 0.23 2.0 -- 5.8
11/06/2018 22:00 0.25 2.3 -- 6.5
11/06/2018 21:00 0.27 2.6 -- 7.1
11/06/2018 20:00 0.29 2.9 -- 7.7
11/06/2018 19:00 0.31 3.3 -- 8.3
11/06/2018 18:00 0.33 3.7 -- 9.0
11/06/2018 17:00 0.35 4.1 -- 9.6
11/06/2018 16:00 0.37 4.5 -- 10.2
11/06/2018 15:00 0.39 4.9 -- 10.8
11/06/2018 14:00 0.41 5.4 -- 11.5
11/06/2018 13:00 0.43 5.9 -- 12.1
11/06/2018 12:00 0.45 6.4 -- 12.7
11/06/2018 11:00 0.47 7.0 -- 13.4
11/06/2018 10:00 0.49 7.5 -- 14.0
11/06/2018 09:00 0.50 8.1 -- 14.6
11/06/2018 08:00 0.52 8.8 -- 15.2
11/06/2018 07:00 0.54 9.4 -- 15.9
11/06/2018 06:00 0.56 10.1 -- 16.5
11/06/2018 05:00 0.58 10.8 -- 17.1
11/06/2018 04:00 0.60 11.6 -- 17.8
11/06/2018 03:00 0.62 12.3 -- 18.4
11/06/2018 02:00 0.64 13.1 -- 19.0
11/06/2018 01:00 0.66 13.9 -- 19.6
11/06/2018 00:00 0.68 14.8 -- 20.3
11/05/2018 23:00 0.70 15.6 -- 20.9
11/05/2018 22:00 0.72 16.5 -- 21.5
11/05/2018 21:00 0.74 17.5 -- 22.1
11/05/2018 20:00 0.76 18.4 -- 22.8
11/05/2018 19:00 0.78 19.4 -- 23.4
11/05/2018 18:00 0.80 20.4 -- 24.0
11/05/2018 17:00 0.82 21.4 -- 24.7
11/05/2018 16:00 0.83 22.5 -- 25.3
11/05/2018 15:00 0.85 23.6 -- 25.9
11/05/2018 14:00 0.87 24.8 -- 26.5
11/05/2018 13:00 0.89 26.0 -- 27.2
11/05/2018 12:00 0.91 27.2 -- 27.8
11/05/2018 11:00 0.93 28.4 -- 28.4
11/05/2018 10:00 0.95 29.7 -- 29.0
11/05/2018 09:00 0.97 31.0 -- 29.7
11/05/2018 08:00 0.99 32.3 0.00 30.3
11/05/2018 07:00 1.02 34.4 0.00 29.2
11/05/2018 06:00 1.08 38.9 0.00 28.7
11/05/2018 05:00 1.13 42.8 0.00 28.7
11/05/2018 04:00 1.19 47.8 0.00 27.8
11/05/2018 03:00 1.23 51.4 0.00 27.8
11/05/2018 02:00 1.29 56.9 0.00 28.6
11/05/2018 01:00 1.36 63.8 0.00 28.2
11/05/2018 00:00 1.42 70.3 0.00 28.8
11/04/2018 23:00 1.48 77.5 0.00 28.9
11/04/2018 22:00 1.55 86.2 0.00 29.5
11/04/2018 21:00 1.62 95.7 0.00 30.5
11/04/2018 20:00 1.69 105.6 0.00 31.8
11/04/2018 19:00 1.74 112.9 0.00 33.6
11/04/2018 18:00 1.80 122.0 0.00 36.2
11/04/2018 17:00 1.86 131.5 0.00 39.6
11/04/2018 16:00 1.94 144.7 0.00 41.6
11/04/2018 15:00 2.00 155.0 0.00 42.6
11/04/2018 14:00 2.06 165.1 0.00 42.9
11/04/2018 13:00 2.12 175.7 -- 43.0
11/04/2018 12:00 2.15 181.4 0.00 41.2
11/04/2018 11:00 2.23 196.6 0.00 40.0
11/04/2018 10:00 2.28 206.1 1.11 38.3
11/04/2018 09:00 2.32 213.9 0.01 37.6
11/04/2018 08:00 2.30 209.8 0.01 37.6
11/04/2018 07:00 2.28 205.7 0.01 37.6
11/04/2018 06:00 2.26 201.7 0.01 37.6
11/04/2018 05:00 2.24 197.7 0.01 37.7
11/04/2018 04:00 2.22 193.8 0.01 37.7
11/04/2018 03:00 2.19 189.9 0.01 37.7
11/04/2018 02:00 2.17 185.8 0.01 37.7
11/04/2018 01:00 2.15 181.8 0.01 37.7
11/04/2018 00:00 2.13 177.8 0.01 37.7
11/03/2018 23:00 2.11 173.9 0.01 37.7
11/03/2018 22:00 2.09 170.1 0.01 37.8
11/03/2018 21:00 2.07 166.5 0.01 37.8
11/03/2018 20:00 2.05 162.9 0.01 37.8
11/03/2018 19:00 2.03 159.4 0.01 37.8
11/03/2018 18:00 2.01 155.9 0.01 37.8
11/03/2018 17:00 1.98 152.3 0.01 37.8
11/03/2018 16:00 1.96 148.6 0.01 37.8
11/03/2018 15:00 -- -- -- --